EGGP Airport Information

Runway Information
Runway 09 Length 7500 ft width 151 ft
Elevation 59 ft Threshold 200 ft Heading 86
Runway 27 Length 7500 ft Width 151 ft
Elevation 77 ft Threshold 0 ft Heading 266
Airport Frequencies
Type APP Name APP Frequency 119.85 MHZ
Type ATIS Name ATIS Frequency 124.325 MHZ
Type GND Name GND Frequency 121.95 MHZ
Type TWR Name TWR Frequency 126.35 MHZ
Airport Navaids
Airport Weather Information & NOTAM
ADDS - METARS form results

(1502 UTC 31 July 2021)
Data provider http://aviationweather.gov/metar/data/
 
METAR text: EGGP 311450Z 28010KT 9999 SCT021 BKN030 17/12 Q1009
Conditions at: EGGP (LIVERPOOL AIRPOR, GB) observed 1450 UTC 31 July 2021
Temperature: 17.0°C (63°F)
Dewpoint: 12.0°C (54°F) [RH = 72%]
Pressure (altimeter): 29.79 inches Hg (1009.0 mb)
Winds: from the W (280 degrees) at 12 MPH (10 knots; 5.1 m/s)
Visibility: 6 or more miles (10+ km)
Ceiling: 3000 feet AGL
Clouds: scattered clouds at 2100 feet AGL
broken clouds at 3000 feet AGL
Weather: no significant weather observed at this time

METAR text: EGGP 311420Z 29011KT 9999 SCT024 OVC032 18/13 Q1009
Conditions at: EGGP (LIVERPOOL AIRPOR, GB) observed 1420 UTC 31 July 2021
Temperature: 18.0°C (64°F)
Dewpoint: 13.0°C (55°F) [RH = 73%]
Pressure (altimeter): 29.79 inches Hg (1009.0 mb)
Winds: from the WNW (290 degrees) at 13 MPH (11 knots; 5.7 m/s)
Visibility: 6 or more miles (10+ km)
Ceiling: 3200 feet AGL
Clouds: scattered clouds at 2400 feet AGL
overcast cloud deck at 3200 feet AGL
Weather: no significant weather observed at this time

Forecast for: EGGP (LIVERPOOL AIRPOR, GB)
Text: TAF EGGP 311055Z 3112/0112 28010KT 9999 SCT025
Forecast period: 1200 UTC 31 July 2021 to 1200 UTC 01 August 2021
Forecast type: FROM: standard forecast or significant change
Winds: from the W (280 degrees) at 12 MPH (10 knots; 5.1 m/s)
Visibility: 6 or more miles (10+ km)
Ceiling: at least 12,000 feet AGL
Clouds: scattered clouds at 2500 feet AGL
Weather: no significant weather forecast for this period
Text: PROB30
Forecast period: 1200 to 1800 UTC 31 July 2021
Forecast type: TEMPORARY: The following changes expected for less than half the time period
Visibility: 5 miles (8 km)
Ceiling: unknown
Clouds: missing
Weather: SHRA  (rain showers)
Text: TEMPO 3112/3118 8000 SHRA
Forecast period: 2100 UTC 31 July 2021 to 0300 UTC 01 August 2021
Forecast type: TEMPORARY: The following changes expected for less than half the time period
Visibility: 4 miles (7 km)
Ceiling: 1400 feet AGL
Clouds: broken clouds at 1400 feet AGL
Weather: RA SHRA  (moderate rain, rain showers)
Text: PROB30
Forecast period: 1000 to 1200 UTC 01 August 2021
Forecast type: TEMPORARY: The following changes expected for less than half the time period
Visibility: 4 miles (7 km)
Ceiling: 1400 feet AGL
Clouds: broken clouds at 1400 feet AGL
Weather: RA SHRA  (moderate rain, rain showers)